createdAt,value
2018-05-21T09:12:15.208Z,56.90
2018-05-21T09:14:44.191Z,57.30
2018-05-21T09:19:41.459Z,56.50
2018-05-21T09:24:40.218Z,56.40
2018-05-21T09:27:09.693Z,56.40
2018-05-21T09:29:37.599Z,56.40
2018-05-21T09:47:31.957Z,52.70
2018-05-21T09:50:00.091Z,52.70
2018-05-21T09:54:58.860Z,52.50
2018-05-21T09:57:26.793Z,53.00
2018-05-21T09:59:56.177Z,52.20
2018-05-21T10:02:25.583Z,52.00
2018-05-21T10:04:55.115Z,52.20
2018-05-21T10:07:23.046Z,51.90
2018-05-21T10:09:51.206Z,50.50
2018-05-21T10:12:20.135Z,51.10
2018-05-21T10:14:48.095Z,51.00
2018-05-21T10:17:16.505Z,50.60
2018-05-21T10:19:44.411Z,50.50
2018-05-21T10:22:13.722Z,50.90
2018-05-21T10:24:42.291Z,49.60
2018-05-21T10:27:10.574Z,47.80
2018-05-21T10:29:38.556Z,48.30
2018-05-21T10:32:07.231Z,49.30
2018-05-21T10:47:31.438Z,45.50
2018-05-21T10:49:59.483Z,45.70
2018-05-21T10:52:30.430Z,46.70
2018-05-21T10:55:00.319Z,46.30
2018-05-21T10:57:30.216Z,47.10
2018-05-21T10:59:58.328Z,46.40
2018-05-21T11:02:28.367Z,47.00
2018-05-21T11:04:57.008Z,45.50
2018-05-21T11:07:27.296Z,45.50
2018-05-21T11:09:58.140Z,45.20
2018-05-21T11:12:27.623Z,44.10
2018-05-21T11:14:57.646Z,44.00
2018-05-21T11:17:28.616Z,43.90
2018-05-21T11:26:06.218Z,41.90
2018-05-21T11:28:37.321Z,41.60
2018-05-21T11:31:09.301Z,40.50
2018-05-21T11:46:34.858Z,34.80
2018-05-21T11:49:07.187Z,35.10
2018-05-21T11:51:37.508Z,35.10
2018-05-21T11:54:10.243Z,33.80
2018-05-21T12:09:36.510Z,30.40
2018-05-21T12:12:07.138Z,30.50
2018-05-21T12:14:36.754Z,29.70
2018-05-21T12:17:07.579Z,31.10
2018-05-21T12:19:38.469Z,31.30
2018-05-21T22:50:02.638Z,52.80
2018-05-21T22:52:30.754Z,52.30
2018-05-21T22:54:58.767Z,53.00
2018-05-21T22:57:26.704Z,53.40
2018-05-21T22:59:54.747Z,52.70
2018-05-21T23:02:24.019Z,53.70
2018-05-21T23:04:52.632Z,53.10
2018-05-21T23:09:49.690Z,52.50
2018-05-21T23:14:46.795Z,52.40
2018-05-21T23:19:43.958Z,52.20
2018-05-21T23:24:41.800Z,52.30
2018-05-21T23:29:39.168Z,53.10
2018-05-21T23:34:36.429Z,53.00
2018-05-21T23:37:04.941Z,53.70
2018-05-21T23:39:33.614Z,53.20
2018-05-21T23:51:41.875Z,56.60
2018-05-21T23:54:10.775Z,55.50
2018-05-21T23:59:07.865Z,54.20
